sensor_id;sensor_type;location;lat;lon;timestamp;P1;durP1;ratioP1;P2;durP2;ratioP2
54947;SDS011;41113;41.882;12.530;2022-12-20T00:00:43;39.42;;;26.90;;
54947;SDS011;41113;41.882;12.530;2022-12-20T00:03:09;39.38;;;26.75;;
54947;SDS011;41113;41.882;12.530;2022-12-20T00:05:38;36.50;;;26.63;;
54947;SDS011;41113;41.882;12.530;2022-12-20T00:08:05;37.33;;;27.00;;
54947;SDS011;41113;41.882;12.530;2022-12-20T00:10:35;40.97;;;27.00;;
54947;SDS011;41113;41.882;12.530;2022-12-20T00:13:05;37.22;;;27.08;;
54947;SDS011;41113;41.882;12.530;2022-12-20T00:15:31;36.60;;;26.15;;
54947;SDS011;41113;41.882;12.530;2022-12-20T00:17:57;36.95;;;25.27;;
54947;SDS011;41113;41.882;12.530;2022-12-20T00:20:23;36.17;;;26.45;;
54947;SDS011;41113;41.882;12.530;2022-12-20T00:22:49;35.47;;;27.02;;
54947;SDS011;41113;41.882;12.530;2022-12-20T00:25:15;37.22;;;26.80;;
54947;SDS011;41113;41.882;12.530;2022-12-20T00:27:40;41.30;;;26.48;;
54947;SDS011;41113;41.882;12.530;2022-12-20T00:30:06;36.80;;;26.52;;
54947;SDS011;41113;41.882;12.530;2022-12-20T00:32:32;35.80;;;25.75;;
54947;SDS011;41113;41.882;12.530;2022-12-20T00:34:57;36.50;;;25.73;;
54947;SDS011;41113;41.882;12.530;2022-12-20T00:37:23;39.22;;;25.20;;
54947;SDS011;41113;41.882;12.530;2022-12-20T00:39:48;34.80;;;24.17;;
54947;SDS011;41113;41.882;12.530;2022-12-20T00:42:14;33.45;;;24.27;;
54947;SDS011;41113;41.882;12.530;2022-12-20T00:44:39;33.03;;;24.10;;
54947;SDS011;41113;41.882;12.530;2022-12-20T00:47:05;38.35;;;24.73;;
54947;SDS011;41113;41.882;12.530;2022-12-20T00:49:30;34.40;;;23.60;;
54947;SDS011;41113;41.882;12.530;2022-12-20T00:51:56;33.47;;;24.45;;
54947;SDS011;41113;41.882;12.530;2022-12-20T00:54:21;38.15;;;24.98;;
54947;SDS011;41113;41.882;12.530;2022-12-20T00:56:47;34.88;;;24.08;;
54947;SDS011;41113;41.882;12.530;2022-12-20T00:59:12;32.95;;;22.40;;
54947;SDS011;41113;41.882;12.530;2022-12-20T01:01:38;32.25;;;22.60;;
54947;SDS011;41113;41.882;12.530;2022-12-20T01:04:03;33.88;;;22.55;;
54947;SDS011;41113;41.882;12.530;2022-12-20T01:06:29;32.85;;;23.10;;
54947;SDS011;41113;41.882;12.530;2022-12-20T01:08:55;32.75;;;22.13;;
54947;SDS011;41113;41.882;12.530;2022-12-20T01:11:24;35.88;;;24.38;;
54947;SDS011;41113;41.882;12.530;2022-12-20T01:13:52;36.65;;;23.77;;
54947;SDS011;41113;41.882;12.530;2022-12-20T01:18:46;32.58;;;22.70;;
54947;SDS011;41113;41.882;12.530;2022-12-20T01:21:13;31.30;;;20.17;;
54947;SDS011;41113;41.882;12.530;2022-12-20T01:23:41;30.85;;;19.63;;
54947;SDS011;41113;41.882;12.530;2022-12-20T01:26:07;27.90;;;19.15;;
54947;SDS011;41113;41.882;12.530;2022-12-20T01:28:36;29.23;;;18.77;;
54947;SDS011;41113;41.882;12.530;2022-12-20T01:31:05;32.65;;;19.52;;
54947;SDS011;41113;41.882;12.530;2022-12-20T01:33:31;30.60;;;20.30;;
54947;SDS011;41113;41.882;12.530;2022-12-20T01:35:58;29.25;;;20.00;;
54947;SDS011;41113;41.882;12.530;2022-12-20T01:38:25;27.85;;;20.70;;
54947;SDS011;41113;41.882;12.530;2022-12-20T01:40:51;32.33;;;22.70;;
54947;SDS011;41113;41.882;12.530;2022-12-20T01:43:17;31.25;;;21.70;;
54947;SDS011;41113;41.882;12.530;2022-12-20T01:45:43;34.10;;;22.23;;
54947;SDS011;41113;41.882;12.530;2022-12-20T01:48:09;32.75;;;21.55;;
54947;SDS011;41113;41.882;12.530;2022-12-20T01:50:36;31.80;;;21.35;;
54947;SDS011;41113;41.882;12.530;2022-12-20T01:53:02;29.17;;;20.75;;
54947;SDS011;41113;41.882;12.530;2022-12-20T01:55:29;31.90;;;20.05;;
54947;SDS011;41113;41.882;12.530;2022-12-20T01:57:57;28.50;;;21.00;;
54947;SDS011;41113;41.882;12.530;2022-12-20T02:00:25;34.65;;;22.48;;
54947;SDS011;41113;41.882;12.530;2022-12-20T02:02:51;29.90;;;19.83;;
54947;SDS011;41113;41.882;12.530;2022-12-20T02:05:18;29.85;;;20.00;;
54947;SDS011;41113;41.882;12.530;2022-12-20T02:07:47;29.63;;;20.33;;
54947;SDS011;41113;41.882;12.530;2022-12-20T02:10:15;30.95;;;20.38;;
54947;SDS011;41113;41.882;12.530;2022-12-20T02:12:43;32.22;;;20.17;;
54947;SDS011;41113;41.882;12.530;2022-12-20T02:18:19;27.83;;;19.58;;
54947;SDS011;41113;41.882;12.530;2022-12-20T02:31:39;29.23;;;19.95;;
54947;SDS011;41113;41.882;12.530;2022-12-20T02:34:08;30.10;;;19.33;;
54947;SDS011;41113;41.882;12.530;2022-12-20T02:36:36;28.05;;;18.65;;
54947;SDS011;41113;41.882;12.530;2022-12-20T02:39:03;30.42;;;19.50;;
54947;SDS011;41113;41.882;12.530;2022-12-20T02:41:31;26.48;;;17.98;;
54947;SDS011;41113;41.882;12.530;2022-12-20T02:44:03;27.70;;;18.25;;
54947;SDS011;41113;41.882;12.530;2022-12-20T02:46:51;30.10;;;18.77;;
54947;SDS011;41113;41.882;12.530;2022-12-20T02:49:20;24.50;;;17.52;;
54947;SDS011;41113;41.882;12.530;2022-12-20T02:51:51;24.00;;;17.75;;
54947;SDS011;41113;41.882;12.530;2022-12-20T02:54:20;24.25;;;17.13;;
54947;SDS011;41113;41.882;12.530;2022-12-20T02:56:48;29.05;;;18.23;;
54947;SDS011;41113;41.882;12.530;2022-12-20T02:59:19;24.95;;;17.50;;
54947;SDS011;41113;41.882;12.530;2022-12-20T03:01:48;29.65;;;18.55;;
54947;SDS011;41113;41.882;12.530;2022-12-20T03:04:16;23.52;;;16.65;;
54947;SDS011;41113;41.882;12.530;2022-12-20T03:07:00;24.15;;;17.10;;
54947;SDS011;41113;41.882;12.530;2022-12-20T03:09:26;22.55;;;15.50;;
54947;SDS011;41113;41.882;12.530;2022-12-20T03:11:52;24.73;;;16.73;;
54947;SDS011;41113;41.882;12.530;2022-12-20T03:14:18;25.67;;;16.52;;
54947;SDS011;41113;41.882;12.530;2022-12-20T03:16:44;24.75;;;17.05;;
54947;SDS011;41113;41.882;12.530;2022-12-20T03:19:09;24.83;;;16.85;;
54947;SDS011;41113;41.882;12.530;2022-12-20T03:21:35;25.10;;;16.55;;
54947;SDS011;41113;41.882;12.530;2022-12-20T03:24:00;27.38;;;17.25;;
54947;SDS011;41113;41.882;12.530;2022-12-20T03:26:26;26.90;;;16.38;;
54947;SDS011;41113;41.882;12.530;2022-12-20T03:28:51;24.88;;;16.05;;
54947;SDS011;41113;41.882;12.530;2022-12-20T03:31:16;23.50;;;16.08;;
54947;SDS011;41113;41.882;12.530;2022-12-20T03:33:42;23.20;;;16.65;;
54947;SDS011;41113;41.882;12.530;2022-12-20T03:36:07;25.65;;;16.25;;
54947;SDS011;41113;41.882;12.530;2022-12-20T03:38:33;26.42;;;16.70;;
54947;SDS011;41113;41.882;12.530;2022-12-20T03:40:58;24.83;;;17.05;;
54947;SDS011;41113;41.882;12.530;2022-12-20T03:43:23;24.33;;;15.82;;
54947;SDS011;41113;41.882;12.530;2022-12-20T03:45:49;26.77;;;17.83;;
54947;SDS011;41113;41.882;12.530;2022-12-20T03:48:14;24.83;;;16.33;;
54947;SDS011;41113;41.882;12.530;2022-12-20T03:50:40;24.67;;;17.48;;
54947;SDS011;41113;41.882;12.530;2022-12-20T03:53:05;24.55;;;17.10;;
54947;SDS011;41113;41.882;12.530;2022-12-20T03:55:31;26.45;;;17.55;;
54947;SDS011;41113;41.882;12.530;2022-12-20T03:58:00;23.95;;;16.98;;
54947;SDS011;41113;41.882;12.530;2022-12-20T04:00:26;31.15;;;18.27;;
54947;SDS011;41113;41.882;12.530;2022-12-20T04:02:52;23.92;;;17.08;;
54947;SDS011;41113;41.882;12.530;2022-12-20T04:05:17;24.65;;;16.08;;
54947;SDS011;41113;41.882;12.530;2022-12-20T04:07:42;28.05;;;17.50;;
54947;SDS011;41113;41.882;12.530;2022-12-20T04:10:09;27.52;;;18.20;;
54947;SDS011;41113;41.882;12.530;2022-12-20T04:12:35;26.75;;;16.90;;
54947;SDS011;41113;41.882;12.530;2022-12-20T04:15:00;23.17;;;16.05;;
54947;SDS011;41113;41.882;12.530;2022-12-20T04:17:25;23.25;;;15.77;;
54947;SDS011;41113;41.882;12.530;2022-12-20T04:19:51;28.70;;;16.65;;
54947;SDS011;41113;41.882;12.530;2022-12-20T04:22:16;24.40;;;16.60;;
54947;SDS011;41113;41.882;12.530;2022-12-20T04:24:42;24.10;;;16.55;;
54947;SDS011;41113;41.882;12.530;2022-12-20T04:27:07;22.88;;;16.60;;
54947;SDS011;41113;41.882;12.530;2022-12-20T04:29:32;25.35;;;17.33;;
54947;SDS011;41113;41.882;12.530;2022-12-20T04:31:58;25.50;;;16.92;;
54947;SDS011;41113;41.882;12.530;2022-12-20T04:34:23;24.90;;;15.70;;
54947;SDS011;41113;41.882;12.530;2022-12-20T04:36:49;22.83;;;15.45;;
54947;SDS011;41113;41.882;12.530;2022-12-20T04:39:14;21.77;;;15.70;;
54947;SDS011;41113;41.882;12.530;2022-12-20T04:41:39;21.90;;;14.32;;
54947;SDS011;41113;41.882;12.530;2022-12-20T04:44:05;25.02;;;15.80;;
54947;SDS011;41113;41.882;12.530;2022-12-20T04:46:30;22.83;;;15.50;;
54947;SDS011;41113;41.882;12.530;2022-12-20T04:48:56;26.48;;;15.35;;
54947;SDS011;41113;41.882;12.530;2022-12-20T04:51:21;23.00;;;15.80;;
54947;SDS011;41113;41.882;12.530;2022-12-20T04:53:47;24.73;;;14.73;;
54947;SDS011;41113;41.882;12.530;2022-12-20T04:56:16;25.60;;;14.82;;
54947;SDS011;41113;41.882;12.530;2022-12-20T04:58:42;21.55;;;13.70;;
54947;SDS011;41113;41.882;12.530;2022-12-20T05:01:08;24.90;;;15.52;;
54947;SDS011;41113;41.882;12.530;2022-12-20T05:03:33;23.88;;;15.52;;
54947;SDS011;41113;41.882;12.530;2022-12-20T05:05:59;21.55;;;14.93;;
54947;SDS011;41113;41.882;12.530;2022-12-20T05:08:24;21.88;;;14.57;;
54947;SDS011;41113;41.882;12.530;2022-12-20T05:10:50;23.00;;;15.65;;
54947;SDS011;41113;41.882;12.530;2022-12-20T05:13:15;25.27;;;16.08;;
54947;SDS011;41113;41.882;12.530;2022-12-20T05:15:41;22.15;;;14.60;;
54947;SDS011;41113;41.882;12.530;2022-12-20T05:18:07;23.83;;;15.60;;
54947;SDS011;41113;41.882;12.530;2022-12-20T05:20:33;20.73;;;14.38;;
54947;SDS011;41113;41.882;12.530;2022-12-20T05:22:59;24.10;;;15.52;;
54947;SDS011;41113;41.882;12.530;2022-12-20T05:25:44;24.73;;;16.08;;
54947;SDS011;41113;41.882;12.530;2022-12-20T05:28:30;26.17;;;16.50;;
54947;SDS011;41113;41.882;12.530;2022-12-20T05:30:55;24.88;;;16.25;;
54947;SDS011;41113;41.882;12.530;2022-12-20T05:33:21;24.58;;;15.75;;
54947;SDS011;41113;41.882;12.530;2022-12-20T05:35:46;26.35;;;16.20;;
54947;SDS011;41113;41.882;12.530;2022-12-20T05:38:12;24.13;;;15.18;;
54947;SDS011;41113;41.882;12.530;2022-12-20T05:40:37;24.30;;;16.27;;
54947;SDS011;41113;41.882;12.530;2022-12-20T05:43:04;24.55;;;15.02;;
54947;SDS011;41113;41.882;12.530;2022-12-20T05:45:30;25.92;;;16.75;;
54947;SDS011;41113;41.882;12.530;2022-12-20T05:47:56;26.98;;;15.73;;
54947;SDS011;41113;41.882;12.530;2022-12-20T05:50:21;23.42;;;14.85;;
54947;SDS011;41113;41.882;12.530;2022-12-20T05:52:48;22.17;;;14.73;;
54947;SDS011;41113;41.882;12.530;2022-12-20T05:55:13;26.88;;;15.60;;
54947;SDS011;41113;41.882;12.530;2022-12-20T05:57:39;23.02;;;15.13;;
54947;SDS011;41113;41.882;12.530;2022-12-20T06:00:05;23.42;;;15.43;;
54947;SDS011;41113;41.882;12.530;2022-12-20T06:02:31;23.50;;;15.55;;
54947;SDS011;41113;41.882;12.530;2022-12-20T06:04:56;25.98;;;15.98;;
54947;SDS011;41113;41.882;12.530;2022-12-20T06:07:23;25.25;;;15.20;;
54947;SDS011;41113;41.882;12.530;2022-12-20T06:09:49;24.38;;;14.35;;
54947;SDS011;41113;41.882;12.530;2022-12-20T06:12:14;25.05;;;15.57;;
54947;SDS011;41113;41.882;12.530;2022-12-20T06:14:42;24.48;;;15.05;;
54947;SDS011;41113;41.882;12.530;2022-12-20T06:17:11;21.33;;;14.38;;
54947;SDS011;41113;41.882;12.530;2022-12-20T06:19:36;21.10;;;13.48;;
54947;SDS011;41113;41.882;12.530;2022-12-20T06:22:05;20.45;;;13.15;;
54947;SDS011;41113;41.882;12.530;2022-12-20T06:24:33;22.38;;;13.20;;
54947;SDS011;41113;41.882;12.530;2022-12-20T06:26:59;22.85;;;13.77;;
54947;SDS011;41113;41.882;12.530;2022-12-20T06:29:25;22.38;;;13.32;;
54947;SDS011;41113;41.882;12.530;2022-12-20T06:31:50;19.50;;;13.63;;
54947;SDS011;41113;41.882;12.530;2022-12-20T06:34:16;21.13;;;13.98;;
54947;SDS011;41113;41.882;12.530;2022-12-20T06:36:42;19.70;;;13.60;;
54947;SDS011;41113;41.882;12.530;2022-12-20T06:39:07;21.42;;;14.90;;
54947;SDS011;41113;41.882;12.530;2022-12-20T06:41:36;23.65;;;14.10;;
54947;SDS011;41113;41.882;12.530;2022-12-20T06:44:01;22.85;;;14.43;;
54947;SDS011;41113;41.882;12.530;2022-12-20T06:46:27;20.67;;;14.20;;
54947;SDS011;41113;41.882;12.530;2022-12-20T06:48:54;24.17;;;15.52;;
54947;SDS011;41113;41.882;12.530;2022-12-20T06:51:20;23.63;;;15.77;;
54947;SDS011;41113;41.882;12.530;2022-12-20T06:53:46;21.40;;;14.57;;
54947;SDS011;41113;41.882;12.530;2022-12-20T06:56:11;25.35;;;15.23;;
54947;SDS011;41113;41.882;12.530;2022-12-20T06:58:37;23.13;;;14.32;;
54947;SDS011;41113;41.882;12.530;2022-12-20T07:01:02;21.92;;;14.52;;
54947;SDS011;41113;41.882;12.530;2022-12-20T07:03:28;23.02;;;14.48;;
54947;SDS011;41113;41.882;12.530;2022-12-20T07:05:53;24.40;;;14.02;;
54947;SDS011;41113;41.882;12.530;2022-12-20T07:08:20;23.63;;;15.45;;
54947;SDS011;41113;41.882;12.530;2022-12-20T07:10:47;21.88;;;14.98;;
54947;SDS011;41113;41.882;12.530;2022-12-20T07:13:12;23.02;;;14.32;;
54947;SDS011;41113;41.882;12.530;2022-12-20T07:15:38;24.23;;;14.45;;
54947;SDS011;41113;41.882;12.530;2022-12-20T07:18:03;23.35;;;14.85;;
54947;SDS011;41113;41.882;12.530;2022-12-20T07:20:29;21.52;;;14.75;;
54947;SDS011;41113;41.882;12.530;2022-12-20T07:22:55;24.67;;;15.73;;
54947;SDS011;41113;41.882;12.530;2022-12-20T07:25:21;23.10;;;14.20;;
54947;SDS011;41113;41.882;12.530;2022-12-20T07:27:46;24.52;;;15.43;;
54947;SDS011;41113;41.882;12.530;2022-12-20T07:30:13;24.83;;;15.15;;
54947;SDS011;41113;41.882;12.530;2022-12-20T07:32:39;24.63;;;15.50;;
54947;SDS011;41113;41.882;12.530;2022-12-20T07:35:05;25.75;;;15.13;;
54947;SDS011;41113;41.882;12.530;2022-12-20T07:37:31;22.88;;;15.13;;
54947;SDS011;41113;41.882;12.530;2022-12-20T07:39:56;27.45;;;16.05;;
54947;SDS011;41113;41.882;12.530;2022-12-20T07:42:21;21.65;;;14.05;;
54947;SDS011;41113;41.882;12.530;2022-12-20T07:44:47;23.27;;;15.48;;
54947;SDS011;41113;41.882;12.530;2022-12-20T07:47:12;24.35;;;16.05;;
54947;SDS011;41113;41.882;12.530;2022-12-20T07:49:38;26.70;;;15.23;;
54947;SDS011;41113;41.882;12.530;2022-12-20T07:52:03;23.58;;;15.15;;
54947;SDS011;41113;41.882;12.530;2022-12-20T07:54:31;22.08;;;15.02;;
54947;SDS011;41113;41.882;12.530;2022-12-20T07:57:02;21.35;;;15.30;;
54947;SDS011;41113;41.882;12.530;2022-12-20T07:59:37;25.10;;;15.70;;
54947;SDS011;41113;41.882;12.530;2022-12-20T08:02:06;23.08;;;15.10;;
54947;SDS011;41113;41.882;12.530;2022-12-20T08:04:37;27.40;;;16.00;;
54947;SDS011;41113;41.882;12.530;2022-12-20T08:07:02;24.45;;;14.60;;
54947;SDS011;41113;41.882;12.530;2022-12-20T08:09:29;24.83;;;14.32;;
54947;SDS011;41113;41.882;12.530;2022-12-20T08:11:58;22.70;;;14.45;;
54947;SDS011;41113;41.882;12.530;2022-12-20T08:14:24;23.30;;;14.90;;
54947;SDS011;41113;41.882;12.530;2022-12-20T08:16:50;22.15;;;14.93;;
54947;SDS011;41113;41.882;12.530;2022-12-20T08:19:15;21.83;;;14.55;;
54947;SDS011;41113;41.882;12.530;2022-12-20T08:21:41;21.38;;;14.85;;
54947;SDS011;41113;41.882;12.530;2022-12-20T08:24:06;21.30;;;13.90;;
54947;SDS011;41113;41.882;12.530;2022-12-20T08:26:35;24.73;;;14.88;;
54947;SDS011;41113;41.882;12.530;2022-12-20T08:29:05;26.98;;;15.55;;
54947;SDS011;41113;41.882;12.530;2022-12-20T08:31:31;21.00;;;14.07;;
54947;SDS011;41113;41.882;12.530;2022-12-20T08:33:57;20.90;;;13.38;;
54947;SDS011;41113;41.882;12.530;2022-12-20T08:36:22;22.45;;;14.05;;
54947;SDS011;41113;41.882;12.530;2022-12-20T08:38:48;18.38;;;11.20;;
54947;SDS011;41113;41.882;12.530;2022-12-20T08:41:13;22.73;;;13.45;;
54947;SDS011;41113;41.882;12.530;2022-12-20T08:43:40;23.17;;;13.20;;
54947;SDS011;41113;41.882;12.530;2022-12-20T08:46:06;21.42;;;13.95;;
54947;SDS011;41113;41.882;12.530;2022-12-20T08:48:33;23.58;;;13.82;;
54947;SDS011;41113;41.882;12.530;2022-12-20T08:51:00;23.77;;;13.45;;
54947;SDS011;41113;41.882;12.530;2022-12-20T08:53:28;23.35;;;14.63;;
54947;SDS011;41113;41.882;12.530;2022-12-20T08:55:54;23.30;;;13.82;;
54947;SDS011;41113;41.882;12.530;2022-12-20T08:58:28;18.92;;;12.52;;
54947;SDS011;41113;41.882;12.530;2022-12-20T09:00:53;19.92;;;11.93;;
54947;SDS011;41113;41.882;12.530;2022-12-20T09:03:25;20.40;;;11.98;;
54947;SDS011;41113;41.882;12.530;2022-12-20T09:05:50;16.85;;;12.20;;
54947;SDS011;41113;41.882;12.530;2022-12-20T09:08:16;20.58;;;11.05;;
54947;SDS011;41113;41.882;12.530;2022-12-20T09:10:41;18.08;;;11.40;;
54947;SDS011;41113;41.882;12.530;2022-12-20T09:13:07;19.33;;;11.60;;
54947;SDS011;41113;41.882;12.530;2022-12-20T09:15:34;17.92;;;10.68;;
54947;SDS011;41113;41.882;12.530;2022-12-20T09:18:00;18.23;;;10.07;;
54947;SDS011;41113;41.882;12.530;2022-12-20T09:20:26;18.33;;;10.93;;
54947;SDS011;41113;41.882;12.530;2022-12-20T09:22:52;17.30;;;10.38;;
54947;SDS011;41113;41.882;12.530;2022-12-20T09:25:17;17.05;;;10.05;;
54947;SDS011;41113;41.882;12.530;2022-12-20T09:27:42;17.13;;;9.75;;
54947;SDS011;41113;41.882;12.530;2022-12-20T09:30:09;17.33;;;10.20;;
54947;SDS011;41113;41.882;12.530;2022-12-20T09:32:34;19.10;;;10.70;;
54947;SDS011;41113;41.882;12.530;2022-12-20T09:35:00;17.42;;;10.13;;
54947;SDS011;41113;41.882;12.530;2022-12-20T09:37:28;16.85;;;10.73;;
54947;SDS011;41113;41.882;12.530;2022-12-20T09:39:54;18.17;;;10.30;;
54947;SDS011;41113;41.882;12.530;2022-12-20T09:42:20;18.15;;;9.93;;
54947;SDS011;41113;41.882;12.530;2022-12-20T09:44:48;23.20;;;13.77;;
54947;SDS011;41113;41.882;12.530;2022-12-20T09:47:16;19.58;;;10.40;;
54947;SDS011;41113;41.882;12.530;2022-12-20T09:49:47;17.08;;;10.30;;
54947;SDS011;41113;41.882;12.530;2022-12-20T10:00:35;14.98;;;8.95;;
54947;SDS011;41113;41.882;12.530;2022-12-20T10:03:09;21.30;;;10.57;;
54947;SDS011;41113;41.882;12.530;2022-12-20T10:05:52;18.70;;;10.57;;
54947;SDS011;41113;41.882;12.530;2022-12-20T10:16:54;19.67;;;11.65;;
54947;SDS011;41113;41.882;12.530;2022-12-20T10:19:23;18.27;;;10.55;;
54947;SDS011;41113;41.882;12.530;2022-12-20T10:22:08;23.58;;;11.68;;
54947;SDS011;41113;41.882;12.530;2022-12-20T10:24:43;19.00;;;12.38;;
54947;SDS011;41113;41.882;12.530;2022-12-20T10:27:19;21.58;;;12.20;;
54947;SDS011;41113;41.882;12.530;2022-12-20T10:29:46;22.05;;;12.63;;
54947;SDS011;41113;41.882;12.530;2022-12-20T10:32:21;20.63;;;12.40;;
54947;SDS011;41113;41.882;12.530;2022-12-20T10:34:51;17.83;;;10.82;;
54947;SDS011;41113;41.882;12.530;2022-12-20T10:37:21;23.13;;;11.77;;
54947;SDS011;41113;41.882;12.530;2022-12-20T10:39:47;18.23;;;11.60;;
54947;SDS011;41113;41.882;12.530;2022-12-20T10:42:22;17.83;;;10.85;;
54947;SDS011;41113;41.882;12.530;2022-12-20T10:44:51;18.13;;;11.20;;
54947;SDS011;41113;41.882;12.530;2022-12-20T10:47:28;18.98;;;10.15;;
54947;SDS011;41113;41.882;12.530;2022-12-20T10:50:16;21.77;;;12.40;;
54947;SDS011;41113;41.882;12.530;2022-12-20T10:52:44;19.92;;;11.40;;
54947;SDS011;41113;41.882;12.530;2022-12-20T10:58:03;21.90;;;12.05;;
54947;SDS011;41113;41.882;12.530;2022-12-20T11:00:36;17.00;;;10.77;;
54947;SDS011;41113;41.882;12.530;2022-12-20T11:03:04;19.17;;;12.10;;
54947;SDS011;41113;41.882;12.530;2022-12-20T11:05:36;16.67;;;9.55;;
54947;SDS011;41113;41.882;12.530;2022-12-20T11:08:13;18.08;;;10.18;;
54947;SDS011;41113;41.882;12.530;2022-12-20T11:10:40;14.95;;;9.43;;
54947;SDS011;41113;41.882;12.530;2022-12-20T11:13:10;18.13;;;9.48;;
54947;SDS011;41113;41.882;12.530;2022-12-20T11:15:49;19.70;;;10.63;;
54947;SDS011;41113;41.882;12.530;2022-12-20T11:23:39;15.25;;;9.60;;
54947;SDS011;41113;41.882;12.530;2022-12-20T11:34:28;16.63;;;9.25;;
54947;SDS011;41113;41.882;12.530;2022-12-20T11:51:20;15.80;;;8.52;;
54947;SDS011;41113;41.882;12.530;2022-12-20T11:53:53;14.25;;;8.10;;
54947;SDS011;41113;41.882;12.530;2022-12-20T11:56:37;14.43;;;7.88;;
54947;SDS011;41113;41.882;12.530;2022-12-20T11:59:49;17.02;;;8.20;;
54947;SDS011;41113;41.882;12.530;2022-12-20T12:02:13;13.57;;;7.80;;
54947;SDS011;41113;41.882;12.530;2022-12-20T12:04:55;16.50;;;8.57;;
54947;SDS011;41113;41.882;12.530;2022-12-20T12:07:28;17.05;;;8.07;;
54947;SDS011;41113;41.882;12.530;2022-12-20T12:15:29;16.90;;;10.45;;
54947;SDS011;41113;41.882;12.530;2022-12-20T12:18:02;19.88;;;10.07;;
54947;SDS011;41113;41.882;12.530;2022-12-20T12:23:15;13.25;;;8.30;;
54947;SDS011;41113;41.882;12.530;2022-12-20T12:25:45;14.45;;;7.50;;
54947;SDS011;41113;41.882;12.530;2022-12-20T12:28:11;16.02;;;7.72;;
54947;SDS011;41113;41.882;12.530;2022-12-20T12:30:42;15.20;;;8.50;;
54947;SDS011;41113;41.882;12.530;2022-12-20T12:33:15;13.80;;;8.77;;
54947;SDS011;41113;41.882;12.530;2022-12-20T12:38:47;14.45;;;7.95;;
54947;SDS011;41113;41.882;12.530;2022-12-20T12:47:14;18.23;;;9.13;;
54947;SDS011;41113;41.882;12.530;2022-12-20T12:49:45;15.38;;;7.97;;
54947;SDS011;41113;41.882;12.530;2022-12-20T13:11:34;14.20;;;7.80;;
54947;SDS011;41113;41.882;12.530;2022-12-20T13:16:46;14.85;;;8.30;;
54947;SDS011;41113;41.882;12.530;2022-12-20T13:19:14;12.85;;;7.82;;
54947;SDS011;41113;41.882;12.530;2022-12-20T13:21:55;15.07;;;7.97;;
54947;SDS011;41113;41.882;12.530;2022-12-20T13:24:33;17.23;;;9.23;;
54947;SDS011;41113;41.882;12.530;2022-12-20T13:26:59;15.55;;;7.93;;
54947;SDS011;41113;41.882;12.530;2022-12-20T13:29:27;15.70;;;8.38;;
54947;SDS011;41113;41.882;12.530;2022-12-20T13:31:58;16.08;;;8.45;;
54947;SDS011;41113;41.882;12.530;2022-12-20T13:37:26;17.88;;;9.02;;
54947;SDS011;41113;41.882;12.530;2022-12-20T13:39:53;14.88;;;8.68;;
54947;SDS011;41113;41.882;12.530;2022-12-20T13:45:02;17.92;;;9.40;;
54947;SDS011;41113;41.882;12.530;2022-12-20T13:47:36;15.18;;;7.70;;
54947;SDS011;41113;41.882;12.530;2022-12-20T13:50:22;13.15;;;7.60;;
54947;SDS011;41113;41.882;12.530;2022-12-20T13:52:51;16.83;;;8.68;;
54947;SDS011;41113;41.882;12.530;2022-12-20T13:55:35;14.73;;;8.48;;
54947;SDS011;41113;41.882;12.530;2022-12-20T13:58:03;17.50;;;8.90;;
54947;SDS011;41113;41.882;12.530;2022-12-20T14:00:34;19.42;;;9.80;;
54947;SDS011;41113;41.882;12.530;2022-12-20T14:02:59;16.55;;;9.15;;
54947;SDS011;41113;41.882;12.530;2022-12-20T14:05:30;15.18;;;8.20;;
54947;SDS011;41113;41.882;12.530;2022-12-20T14:08:02;16.63;;;9.35;;
54947;SDS011;41113;41.882;12.530;2022-12-20T14:10:31;16.90;;;8.38;;
54947;SDS011;41113;41.882;12.530;2022-12-20T14:12:58;16.00;;;8.85;;
54947;SDS011;41113;41.882;12.530;2022-12-20T14:15:31;15.50;;;8.02;;
54947;SDS011;41113;41.882;12.530;2022-12-20T14:18:05;15.15;;;8.10;;
54947;SDS011;41113;41.882;12.530;2022-12-20T14:20:44;17.23;;;8.23;;
54947;SDS011;41113;41.882;12.530;2022-12-20T14:23:16;15.02;;;7.72;;
54947;SDS011;41113;41.882;12.530;2022-12-20T14:28:18;19.08;;;7.32;;
54947;SDS011;41113;41.882;12.530;2022-12-20T14:30:52;19.50;;;10.48;;
54947;SDS011;41113;41.882;12.530;2022-12-20T14:33:24;17.23;;;10.20;;
54947;SDS011;41113;41.882;12.530;2022-12-20T14:35:53;20.70;;;10.40;;
54947;SDS011;41113;41.882;12.530;2022-12-20T14:38:23;20.92;;;11.32;;
54947;SDS011;41113;41.882;12.530;2022-12-20T14:40:52;19.38;;;10.82;;
54947;SDS011;41113;41.882;12.530;2022-12-20T14:43:27;19.05;;;10.82;;
54947;SDS011;41113;41.882;12.530;2022-12-20T14:48:42;17.42;;;8.35;;
54947;SDS011;41113;41.882;12.530;2022-12-20T14:51:07;26.02;;;10.48;;
54947;SDS011;41113;41.882;12.530;2022-12-20T14:53:33;19.55;;;10.05;;
54947;SDS011;41113;41.882;12.530;2022-12-20T14:55:59;22.02;;;10.48;;
54947;SDS011;41113;41.882;12.530;2022-12-20T15:00:55;17.83;;;9.73;;
54947;SDS011;41113;41.882;12.530;2022-12-20T15:03:21;20.05;;;10.52;;
54947;SDS011;41113;41.882;12.530;2022-12-20T15:05:48;20.00;;;9.05;;
54947;SDS011;41113;41.882;12.530;2022-12-20T15:16:04;18.90;;;8.68;;
54947;SDS011;41113;41.882;12.530;2022-12-20T15:18:30;20.02;;;9.57;;
54947;SDS011;41113;41.882;12.530;2022-12-20T15:21:01;17.17;;;8.48;;
54947;SDS011;41113;41.882;12.530;2022-12-20T15:23:50;17.60;;;10.00;;
54947;SDS011;41113;41.882;12.530;2022-12-20T15:26:18;14.82;;;8.23;;
54947;SDS011;41113;41.882;12.530;2022-12-20T15:28:47;16.45;;;8.93;;
54947;SDS011;41113;41.882;12.530;2022-12-20T15:31:15;16.27;;;9.00;;
54947;SDS011;41113;41.882;12.530;2022-12-20T15:33:42;16.15;;;7.82;;
54947;SDS011;41113;41.882;12.530;2022-12-20T15:36:18;15.98;;;9.00;;
54947;SDS011;41113;41.882;12.530;2022-12-20T15:38:45;20.38;;;10.25;;
54947;SDS011;41113;41.882;12.530;2022-12-20T15:41:26;17.13;;;9.98;;
54947;SDS011;41113;41.882;12.530;2022-12-20T15:43:55;20.95;;;10.15;;
54947;SDS011;41113;41.882;12.530;2022-12-20T15:46:22;19.40;;;10.00;;
54947;SDS011;41113;41.882;12.530;2022-12-20T15:48:48;21.27;;;10.15;;
54947;SDS011;41113;41.882;12.530;2022-12-20T15:51:14;17.48;;;9.68;;
54947;SDS011;41113;41.882;12.530;2022-12-20T15:54:01;22.85;;;13.50;;
54947;SDS011;41113;41.882;12.530;2022-12-20T15:56:28;22.00;;;12.43;;
54947;SDS011;41113;41.882;12.530;2022-12-20T15:58:54;24.92;;;13.73;;
54947;SDS011;41113;41.882;12.530;2022-12-20T16:01:24;21.73;;;12.63;;
54947;SDS011;41113;41.882;12.530;2022-12-20T16:03:57;20.23;;;11.95;;
54947;SDS011;41113;41.882;12.530;2022-12-20T16:06:23;27.50;;;12.73;;
54947;SDS011;41113;41.882;12.530;2022-12-20T16:08:48;27.20;;;12.52;;
54947;SDS011;41113;41.882;12.530;2022-12-20T16:11:24;22.75;;;12.70;;
54947;SDS011;41113;41.882;12.530;2022-12-20T16:13:53;18.27;;;11.77;;
54947;SDS011;41113;41.882;12.530;2022-12-20T16:16:20;22.77;;;13.13;;
54947;SDS011;41113;41.882;12.530;2022-12-20T16:18:47;22.92;;;12.73;;
54947;SDS011;41113;41.882;12.530;2022-12-20T16:21:16;22.98;;;12.57;;